Time;durP1;ratioP1;P1;durP2;ratioP2;P2;SDS_P1;SDS_P2;PMS_P1;PMS_P2;Temp;Humidity;BMP_temperature;BMP_pressure;BME280_temperature;BME280_humidity;BME280_pressure;Samples;Min_cycle;Max_cycle;Signal;HPM_P1;HPM_P2
2021/01/09 00:00:09;;;;;;;102.00;44.10;;;-0.10;99.90;;;;;;4945608;29;20260;-93
2021/01/09 00:02:35;;;;;;;104.07;44.47;;;-0.20;99.90;;;;;;4966898;29;20219;-94
2021/01/09 00:05:01;;;;;;;91.73;40.70;;;0.00;99.90;;;;;;4962139;29;20178;-95
2021/01/09 00:07:27;;;;;;;93.87;42.63;;;-0.20;99.90;;;;;;4979172;29;20192;-91
2021/01/09 00:09:52;;;;;;;88.70;41.00;;;1.90;99.90;;;;;;4963146;29;20231;-94
2021/01/09 00:12:18;;;;;;;93.43;41.20;;;-0.20;99.90;;;;;;4979039;28;20175;-94
2021/01/09 00:14:43;;;;;;;94.47;42.70;;;1.60;99.90;;;;;;4979168;28;20222;-91
2021/01/09 00:17:09;;;;;;;88.03;41.30;;;1.10;99.90;;;;;;4979298;28;20169;-91
2021/01/09 00:19:35;;;;;;;90.83;38.37;;;-0.20;99.90;;;;;;4963046;29;20161;-91
2021/01/09 00:22:01;;;;;;;93.40;39.60;;;0.60;99.90;;;;;;4979414;28;20166;-91
2021/01/09 00:24:27;;;;;;;89.13;39.07;;;-0.20;99.90;;;;;;4969324;28;20319;-93
2021/01/09 00:26:52;;;;;;;86.23;39.73;;;-0.20;99.90;;;;;;4993975;28;20183;-93
2021/01/09 00:29:18;;;;;;;92.10;41.20;;;1.80;99.90;;;;;;4979187;28;20235;-92
2021/01/09 00:31:44;;;;;;;93.63;38.37;;;-0.20;99.90;;;;;;4994715;28;20193;-91
2021/01/09 00:34:09;;;;;;;93.60;41.00;;;1.90;99.90;;;;;;4994867;28;20177;-92
2021/01/09 00:36:35;;;;;;;93.13;41.27;;;0.10;99.90;;;;;;4970540;28;20656;-94
2021/01/09 00:39:03;;;;;;;95.37;41.73;;;2.40;99.90;;;;;;4954360;28;20224;-93
2021/01/09 00:41:30;;;;;;;85.90;39.83;;;-0.20;99.90;;;;;;4970527;28;20215;-93
2021/01/09 00:43:56;;;;;;;97.10;44.23;;;-0.20;99.90;;;;;;4954399;29;20201;-94
2021/01/09 00:46:22;;;;;;;91.33;46.83;;;1.10;99.90;;;;;;4954835;29;20197;-94
2021/01/09 00:48:48;;;;;;;81.77;38.00;;;0.10;99.90;;;;;;4970174;28;20192;-95
2021/01/09 00:51:18;;;;;;;98.87;41.83;;;1.90;99.90;;;;;;4955564;28;20539;-95
2021/01/09 00:53:44;;;;;;;102.83;45.63;;;0.50;99.90;;;;;;4954315;29;20191;-95
2021/01/09 00:56:14;;;;;;;98.47;44.53;;;0.80;99.90;;;;;;4970612;28;20183;-95
2021/01/09 00:58:41;;;;;;;92.33;44.87;;;-0.20;99.90;;;;;;4954084;29;20179;-95
2021/01/09 01:01:06;;;;;;;95.93;45.57;;;1.10;99.90;;;;;;4955450;28;20245;-96
2021/01/09 01:03:32;;;;;;;88.63;41.70;;;-0.10;99.90;;;;;;4970272;28;20693;-92
2021/01/09 01:05:58;;;;;;;90.27;39.17;;;2.10;99.90;;;;;;4970492;28;20187;-93
2021/01/09 01:08:23;;;;;;;94.77;39.77;;;1.60;99.90;;;;;;4953928;29;20201;-94
2021/01/09 01:10:49;;;;;;;90.33;39.23;;;0.60;99.90;;;;;;4970213;28;20267;-93
2021/01/09 01:13:15;;;;;;;91.67;40.00;;;1.80;99.90;;;;;;4970493;28;20660;-94
2021/01/09 01:15:43;;;;;;;86.87;38.70;;;2.00;99.90;;;;;;4954010;29;20190;-94
2021/01/09 01:18:08;;;;;;;87.77;39.00;;;0.80;99.90;;;;;;4954329;28;20544;-95
2021/01/09 01:20:34;;;;;;;87.73;39.90;;;-0.20;99.90;;;;;;4953981;28;20211;-91
2021/01/09 01:23:00;;;;;;;83.90;37.10;;;-0.20;99.90;;;;;;4969876;28;20188;-93
2021/01/09 01:25:25;;;;;;;83.93;37.10;;;-0.20;99.90;;;;;;4953674;28;20238;-93
2021/01/09 01:27:51;;;;;;;86.73;39.80;;;0.90;99.90;;;;;;4953757;29;20207;-94
2021/01/09 01:30:17;;;;;;;89.80;38.30;;;-0.20;99.90;;;;;;4953822;29;20218;-92
2021/01/09 01:32:43;;;;;;;86.37;40.27;;;-0.20;99.90;;;;;;4969592;28;20603;-93
2021/01/09 01:35:09;;;;;;;98.10;40.73;;;1.90;99.90;;;;;;4954322;28;20210;-94
2021/01/09 01:37:35;;;;;;;92.83;41.47;;;-0.30;99.90;;;;;;4941512;29;20184;-93
2021/01/09 01:40:01;;;;;;;78.03;36.63;;;2.10;99.90;;;;;;4973225;28;20552;-94
2021/01/09 01:42:28;;;;;;;79.13;37.30;;;-0.20;99.90;;;;;;4973851;28;20644;-94
2021/01/09 01:44:55;;;;;;;80.07;36.27;;;1.80;99.90;;;;;;4973328;28;20273;-95
2021/01/09 01:47:21;;;;;;;90.40;38.30;;;0.00;99.90;;;;;;4957439;29;20241;-94
2021/01/09 01:49:48;;;;;;;85.57;35.93;;;0.20;99.90;;;;;;4960289;29;20189;-90
2021/01/09 01:52:14;;;;;;;79.63;35.03;;;2.30;99.90;;;;;;4968603;29;20196;-90
2021/01/09 01:54:44;;;;;;;88.30;38.27;;;-0.30;99.90;;;;;;4980673;28;20194;-93
2021/01/09 01:57:12;;;;;;;86.00;37.70;;;-0.30;99.90;;;;;;4958340;28;20181;-94
2021/01/09 01:59:39;;;;;;;79.80;35.83;;;1.00;99.90;;;;;;4957027;28;20250;-94
2021/01/09 02:02:10;;;;;;;84.20;35.60;;;0.20;99.90;;;;;;4958103;28;20182;-93
2021/01/09 02:04:36;;;;;;;84.23;38.10;;;-0.40;99.90;;;;;;4957318;29;20208;-94
2021/01/09 02:07:07;;;;;;;83.73;36.37;;;-0.40;99.90;;;;;;4956609;28;20199;-93
2021/01/09 02:09:37;;;;;;;86.17;37.53;;;-0.40;99.90;;;;;;4973509;28;20187;-92
2021/01/09 02:12:09;;;;;;;79.53;37.07;;;-0.40;99.90;;;;;;4956863;29;20190;-94
2021/01/09 02:14:41;;;;;;;82.07;37.53;;;-0.40;99.90;;;;;;4973005;28;20180;-94
2021/01/09 02:17:08;;;;;;;97.63;37.00;;;2.00;99.90;;;;;;4956663;29;20193;-95
2021/01/09 02:19:44;;;;;;;82.43;36.10;;;-0.20;99.90;;;;;;4956708;29;20213;-94
2021/01/09 02:22:18;;;;;;;82.50;38.23;;;0.70;99.90;;;;;;4972955;28;20194;-94
2021/01/09 02:24:45;;;;;;;77.63;37.13;;;0.60;99.90;;;;;;4958028;28;20700;-94
2021/01/09 02:27:13;;;;;;;82.40;37.20;;;0.20;99.90;;;;;;4958148;29;20187;-94
2021/01/09 02:29:49;;;;;;;84.43;37.03;;;-0.50;99.90;;;;;;4956967;29;20183;-94
2021/01/09 02:32:18;;;;;;;80.37;37.23;;;-0.60;99.90;;;;;;4956756;29;20183;-94
2021/01/09 02:35:13;;;;;;;79.93;35.43;;;0.60;99.90;;;;;;4940666;29;20234;-91
2021/01/09 02:37:39;;;;;;;86.33;35.80;;;-0.70;99.90;;;;;;4955964;29;20278;-95
2021/01/09 02:40:06;;;;;;;78.30;36.97;;;2.30;99.90;;;;;;4940331;29;20346;-94
2021/01/09 02:42:32;;;;;;;87.07;36.63;;;-0.80;99.90;;;;;;4924841;29;20198;-95
2021/01/09 02:45:00;;;;;;;83.63;35.90;;;1.80;99.90;;;;;;4940433;29;20276;-94
2021/01/09 02:47:26;;;;;;;73.37;33.10;;;1.80;99.90;;;;;;4940002;29;20182;-95
2021/01/09 02:49:51;;;;;;;83.03;35.17;;;0.00;99.90;;;;;;4956301;29;20193;-95
2021/01/09 02:52:17;;;;;;;86.53;38.00;;;0.90;99.90;;;;;;4940654;29;20533;-95
2021/01/09 02:54:43;;;;;;;87.87;38.00;;;2.10;99.90;;;;;;4940359;29;20210;-94
2021/01/09 02:57:08;;;;;;;80.20;36.70;;;1.00;99.90;;;;;;4955962;29;20245;-95
2021/01/09 02:59:34;;;;;;;91.70;37.60;;;0.50;99.90;;;;;;4940519;29;20242;-95
2021/01/09 03:01:59;;;;;;;82.80;33.60;;;1.60;99.90;;;;;;4940222;29;20219;-94
2021/01/09 03:04:25;;;;;;;85.20;35.67;;;1.20;99.90;;;;;;4942161;29;20220;-94
2021/01/09 03:06:51;;;;;;;84.97;35.03;;;0.30;99.90;;;;;;4942167;29;20187;-94
2021/01/09 03:09:16;;;;;;;84.03;36.17;;;0.70;99.90;;;;;;4940778;29;20198;-94
2021/01/09 03:11:42;;;;;;;84.53;38.03;;;0.90;99.90;;;;;;4943271;29;20198;-94
2021/01/09 03:14:08;;;;;;;85.23;35.23;;;1.20;99.90;;;;;;4942387;29;21038;-94
2021/01/09 03:16:33;;;;;;;72.97;33.77;;;-1.10;99.90;;;;;;4942805;29;20186;-94
2021/01/09 03:18:59;;;;;;;81.80;35.87;;;-0.90;99.90;;;;;;4943933;29;20190;-95
2021/01/09 03:21:25;;;;;;;80.97;37.97;;;0.70;99.90;;;;;;4946308;29;20217;-95
2021/01/09 03:23:51;;;;;;;83.67;36.00;;;1.80;99.90;;;;;;4945177;28;20237;-94
2021/01/09 03:26:17;;;;;;;75.33;36.07;;;1.60;99.90;;;;;;4972392;28;20186;-95
2021/01/09 03:28:42;;;;;;;82.20;34.67;;;-1.00;99.90;;;;;;4956284;28;20257;-95
2021/01/09 03:31:08;;;;;;;88.37;37.03;;;1.60;99.90;;;;;;4955222;28;20191;-96
2021/01/09 03:33:34;;;;;;;87.17;36.77;;;0.60;99.90;;;;;;4957177;28;20226;-96
2021/01/09 03:36:00;;;;;;;83.47;37.40;;;-0.40;99.90;;;;;;4971825;28;20214;-95
2021/01/09 03:38:25;;;;;;;79.07;36.57;;;0.40;99.90;;;;;;4956115;28;20195;-95
2021/01/09 03:40:51;;;;;;;84.47;37.33;;;1.20;99.90;;;;;;4971466;28;20618;-92
2021/01/09 03:43:17;;;;;;;81.33;36.63;;;0.70;99.90;;;;;;4956459;28;20183;-95
2021/01/09 03:45:43;;;;;;;91.13;38.10;;;2.00;99.90;;;;;;4956313;29;20191;-95
2021/01/09 03:48:09;;;;;;;83.63;38.33;;;-0.80;99.90;;;;;;4955799;28;20640;-94
2021/01/09 03:50:34;;;;;;;90.20;38.13;;;-1.10;99.90;;;;;;4972460;28;20244;-94
2021/01/09 03:53:00;;;;;;;84.33;38.13;;;-0.70;99.90;;;;;;4957585;29;20182;-95
2021/01/09 03:55:25;;;;;;;83.53;38.30;;;0.00;99.90;;;;;;4956009;29;20181;-95
2021/01/09 03:57:51;;;;;;;89.20;37.33;;;0.70;99.90;;;;;;4959708;28;20251;-92
2021/01/09 04:00:17;;;;;;;104.93;42.97;;;-0.20;99.90;;;;;;4961211;29;20691;-91
2021/01/09 04:02:43;;;;;;;102.73;41.83;;;-1.00;99.90;;;;;;4994663;28;20308;-91
2021/01/09 04:05:10;;;;;;;97.93;41.40;;;1.00;99.90;;;;;;4977472;28;20194;-93
2021/01/09 04:07:36;;;;;;;92.63;38.07;;;-2.00;99.90;;;;;;4957062;28;20723;-95
2021/01/09 04:10:03;;;;;;;102.37;40.57;;;-2.10;99.90;;;;;;4955603;28;20280;-94
2021/01/09 04:12:28;;;;;;;92.60;40.30;;;-1.00;99.90;;;;;;4974898;28;20179;-95
2021/01/09 04:14:54;;;;;;;85.00;39.27;;;1.60;99.90;;;;;;4957733;28;20656;-95
2021/01/09 04:17:20;;;;;;;97.17;38.80;;;-0.80;99.90;;;;;;4973060;28;20272;-92
2021/01/09 04:19:46;;;;;;;100.17;39.83;;;0.70;99.90;;;;;;4957616;28;20183;-96
2021/01/09 04:22:14;;;;;;;96.73;40.60;;;0.90;99.90;;;;;;4974663;28;20260;-96
2021/01/09 04:24:40;;;;;;;85.97;36.87;;;1.60;99.90;;;;;;4959982;28;20306;-95
2021/01/09 04:27:06;;;;;;;89.90;38.67;;;2.50;99.90;;;;;;4956312;28;20729;-94
2021/01/09 04:29:32;;;;;;;92.97;40.00;;;0.60;99.90;;;;;;4955698;28;20181;-94
2021/01/09 04:31:58;;;;;;;91.97;38.40;;;0.10;99.90;;;;;;4957063;28;20183;-93
2021/01/09 04:34:27;;;;;;;91.77;39.93;;;1.90;99.90;;;;;;4956612;28;20671;-96
2021/01/09 04:36:53;;;;;;;91.87;38.27;;;1.80;99.90;;;;;;4957138;28;20180;-95
2021/01/09 04:39:20;;;;;;;92.33;38.83;;;1.30;99.90;;;;;;4954883;28;20273;-94
2021/01/09 04:41:46;;;;;;;95.00;39.90;;;-0.80;99.90;;;;;;4955841;28;20570;-95
2021/01/09 04:44:13;;;;;;;94.60;40.83;;;-0.90;99.90;;;;;;4970661;28;20187;-95
2021/01/09 04:46:55;;;;;;;94.87;39.70;;;-0.60;99.90;;;;;;4954770;28;20202;-96
2021/01/09 04:49:23;;;;;;;93.93;41.00;;;-0.80;99.90;;;;;;4955686;28;20184;-94
2021/01/09 04:51:50;;;;;;;103.77;40.50;;;1.20;99.90;;;;;;4956282;28;20208;-95
2021/01/09 04:54:17;;;;;;;94.63;39.53;;;-0.30;99.90;;;;;;4955647;28;20586;-96
2021/01/09 04:56:45;;;;;;;91.00;40.47;;;-0.80;99.90;;;;;;4955025;28;20194;-95
2021/01/09 04:59:14;;;;;;;97.53;41.03;;;1.70;99.90;;;;;;4970345;28;20205;-95
2021/01/09 05:01:45;;;;;;;89.87;38.13;;;-0.80;99.90;;;;;;4955754;28;20249;-95
2021/01/09 05:04:11;;;;;;;95.80;42.90;;;2.10;99.90;;;;;;4954461;28;20644;-95
2021/01/09 05:06:38;;;;;;;92.23;40.30;;;1.30;99.90;;;;;;4954631;28;20281;-95
2021/01/09 05:09:05;;;;;;;93.40;40.70;;;2.40;99.90;;;;;;4970552;28;20194;-94
2021/01/09 05:11:31;;;;;;;95.20;39.77;;;0.20;99.90;;;;;;4958278;28;20183;-95
2021/01/09 05:13:58;;;;;;;88.03;39.03;;;1.70;99.90;;;;;;4958224;28;20179;-94
2021/01/09 05:16:25;;;;;;;91.93;39.73;;;1.30;99.90;;;;;;4959113;28;20195;-94
2021/01/09 05:18:51;;;;;;;88.97;37.83;;;0.20;99.90;;;;;;4974121;28;20186;-95
2021/01/09 05:21:18;;;;;;;85.03;38.27;;;1.90;99.90;;;;;;4957738;28;20756;-94
2021/01/09 05:24:03;;;;;;;93.33;38.40;;;0.50;99.90;;;;;;4958923;28;20273;-93
2021/01/09 05:26:30;;;;;;;91.87;40.23;;;-0.60;99.90;;;;;;4941274;29;20183;-94
2021/01/09 05:29:01;;;;;;;90.27;40.53;;;1.60;99.90;;;;;;4956627;29;20259;-94
2021/01/09 05:31:28;;;;;;;100.80;42.90;;;0.90;99.90;;;;;;4931866;29;20190;-93
2021/01/09 05:33:54;;;;;;;112.27;42.70;;;1.30;99.90;;;;;;4948309;28;20634;-92
2021/01/09 05:36:21;;;;;;;89.53;39.47;;;2.30;99.90;;;;;;4944880;28;20198;-94
2021/01/09 05:38:49;;;;;;;100.90;41.87;;;2.30;99.90;;;;;;4978238;28;20704;-95
2021/01/09 05:41:17;;;;;;;101.73;41.03;;;1.60;99.90;;;;;;4960713;28;20222;-95
2021/01/09 05:44:06;;;;;;;92.80;39.13;;;2.50;99.90;;;;;;4961085;28;20180;-95
2021/01/09 05:46:37;;;;;;;101.87;40.73;;;-0.60;99.90;;;;;;4971913;28;20203;-95
2021/01/09 05:49:04;;;;;;;85.37;39.10;;;0.40;99.90;;;;;;4935322;28;20687;-95
2021/01/09 05:51:35;;;;;;;95.40;40.53;;;2.30;99.90;;;;;;4942047;29;20224;-95
2021/01/09 05:54:01;;;;;;;98.03;39.57;;;-0.40;99.90;;;;;;4948168;28;20198;-95
2021/01/09 05:56:27;;;;;;;97.17;41.27;;;-0.60;99.90;;;;;;4940055;29;20199;-94
2021/01/09 05:58:54;;;;;;;95.30;39.40;;;-0.20;99.90;;;;;;4956329;28;20198;-94
2021/01/09 06:01:28;;;;;;;91.80;38.03;;;0.90;99.90;;;;;;4957563;29;20229;-94
2021/01/09 06:04:05;;;;;;;95.87;39.57;;;2.00;99.90;;;;;;4946099;29;20188;-94
2021/01/09 06:07:04;;;;;;;91.33;39.77;;;-0.50;99.90;;;;;;4957853;29;20621;-93
2021/01/09 06:09:35;;;;;;;93.30;40.63;;;-0.50;99.90;;;;;;4942633;29;20198;-94
2021/01/09 06:12:05;;;;;;;79.53;37.07;;;1.10;99.90;;;;;;4942279;29;20188;-94
2021/01/09 06:14:34;;;;;;;87.47;35.50;;;-0.30;99.90;;;;;;4941209;29;20187;-93
2021/01/09 06:17:03;;;;;;;80.57;36.83;;;2.40;99.90;;;;;;4961274;28;20734;-93
2021/01/09 06:19:29;;;;;;;90.60;41.97;;;0.00;99.90;;;;;;4949988;28;20214;-96
2021/01/09 06:21:55;;;;;;;82.83;37.00;;;0.30;99.90;;;;;;4951829;28;20216;-95
2021/01/09 06:24:22;;;;;;;91.03;36.77;;;1.00;99.90;;;;;;4969011;28;20263;-94
2021/01/09 06:26:48;;;;;;;90.53;37.97;;;1.00;99.90;;;;;;4952025;28;20191;-93
2021/01/09 06:29:25;;;;;;;87.00;38.97;;;2.20;99.90;;;;;;4972546;28;20167;-96
2021/01/09 06:31:52;;;;;;;89.97;38.53;;;-1.00;99.90;;;;;;4945391;28;20651;-95
2021/01/09 06:34:22;;;;;;;88.10;39.13;;;-0.10;99.90;;;;;;4962242;28;20270;-93
2021/01/09 06:36:53;;;;;;;88.83;39.43;;;1.90;99.90;;;;;;4940995;29;20183;-92
2021/01/09 06:39:19;;;;;;;94.30;40.90;;;1.80;99.90;;;;;;4963759;28;20184;-92
2021/01/09 06:41:46;;;;;;;86.50;38.53;;;2.40;99.90;;;;;;4963011;28;20216;-93
2021/01/09 06:44:14;;;;;;;90.27;37.83;;;0.10;99.90;;;;;;4971291;28;20200;-93
2021/01/09 06:46:42;;;;;;;87.63;39.17;;;-0.10;99.90;;;;;;4959101;28;20194;-89
2021/01/09 06:49:16;;;;;;;95.20;40.73;;;2.50;99.90;;;;;;4951911;28;20183;-88
2021/01/09 06:51:44;;;;;;;85.33;38.10;;;0.70;99.90;;;;;;4962860;28;20251;-91
2021/01/09 06:54:15;;;;;;;85.63;38.93;;;-0.30;99.90;;;;;;4963777;29;20171;-94
2021/01/09 06:56:46;;;;;;;74.67;32.03;;;1.80;99.90;;;;;;4963413;28;20185;-86
2021/01/09 06:59:35;;;;;;;74.47;32.53;;;-0.20;99.90;;;;;;4944738;29;20240;-93
2021/01/09 07:02:16;;;;;;;88.33;38.53;;;-0.20;99.90;;;;;;4958474;28;20193;-92
2021/01/09 07:05:02;;;;;;;104.30;42.90;;;-0.20;99.90;;;;;;4962758;28;20180;-92
2021/01/09 07:07:27;;;;;;;89.70;39.97;;;-0.20;99.90;;;;;;4962779;28;20173;-91
2021/01/09 07:10:02;;;;;;;97.37;41.17;;;1.90;99.90;;;;;;4978972;28;20206;-90
2021/01/09 07:12:29;;;;;;;85.63;38.57;;;1.50;99.90;;;;;;4975482;28;20172;-91
2021/01/09 07:15:03;;;;;;;97.27;39.17;;;0.20;99.90;;;;;;4941801;29;20199;-93
2021/01/09 07:17:39;;;;;;;88.07;39.67;;;0.80;99.90;;;;;;4936598;29;20184;-92
2021/01/09 07:20:09;;;;;;;89.47;36.37;;;-0.10;99.90;;;;;;4953280;29;20185;-92
2021/01/09 07:22:45;;;;;;;85.27;38.20;;;-0.10;99.90;;;;;;4936176;29;20979;-91
2021/01/09 07:25:11;;;;;;;82.73;37.20;;;1.40;99.90;;;;;;4953750;29;20317;-92
2021/01/09 07:27:41;;;;;;;84.60;37.30;;;1.10;99.90;;;;;;4937010;29;20637;-94
2021/01/09 07:30:17;;;;;;;83.50;35.80;;;1.80;99.90;;;;;;4937719;29;20196;-92
2021/01/09 07:32:44;;;;;;;91.07;38.57;;;0.00;99.90;;;;;;4920177;28;20223;-93
2021/01/09 07:35:10;;;;;;;87.90;36.83;;;2.00;99.90;;;;;;4937862;29;20186;-94
2021/01/09 07:37:40;;;;;;;86.80;37.33;;;1.00;99.90;;;;;;4924350;29;20254;-92
2021/01/09 07:40:12;;;;;;;83.27;36.97;;;1.20;99.90;;;;;;4936788;28;20203;-92
2021/01/09 07:42:38;;;;;;;87.47;36.10;;;0.00;99.90;;;;;;4954213;28;20213;-94
2021/01/09 07:45:09;;;;;;;94.10;36.97;;;0.00;99.90;;;;;;4936749;28;20656;-95
2021/01/09 07:47:40;;;;;;;83.80;36.10;;;0.00;99.90;;;;;;4935445;29;20191;-92
2021/01/09 07:50:08;;;;;;;91.43;39.63;;;0.00;99.90;;;;;;4936595;28;20268;-94
2021/01/09 07:52:34;;;;;;;76.77;35.13;;;0.10;99.90;;;;;;4937525;29;20196;-93
2021/01/09 07:55:02;;;;;;;88.23;34.70;;;1.80;99.90;;;;;;4937392;29;20193;-93
2021/01/09 07:57:28;;;;;;;87.20;35.80;;;0.10;99.90;;;;;;4947113;29;20180;-90
2021/01/09 07:59:53;;;;;;;85.03;36.23;;;1.60;99.90;;;;;;4929032;29;20188;-91
2021/01/09 08:02:46;;;;;;;76.07;35.07;;;0.60;99.90;;;;;;4954723;29;20189;-94
2021/01/09 08:05:20;;;;;;;82.93;36.97;;;0.40;99.90;;;;;;4933792;29;20627;-90
2021/01/09 08:07:57;;;;;;;84.50;34.60;;;0.20;99.90;;;;;;4941548;29;20186;-95
2021/01/09 08:10:31;;;;;;;87.60;35.93;;;0.10;99.90;;;;;;4925085;29;20683;-94
2021/01/09 08:13:01;;;;;;;76.50;34.60;;;0.60;99.90;;;;;;4947118;29;20188;-91
2021/01/09 08:15:29;;;;;;;78.10;35.73;;;0.40;99.90;;;;;;4948479;29;20245;-92
2021/01/09 08:17:59;;;;;;;55.13;24.87;;;0.10;99.90;;;;;;4924297;29;20271;-94
2021/01/09 08:20:25;;;;;;;79.37;33.10;;;1.40;99.90;;;;;;4926336;29;20223;-91
2021/01/09 08:22:56;;;;;;;83.60;35.67;;;0.20;99.90;;;;;;4938093;29;20187;-93
2021/01/09 08:25:24;;;;;;;78.73;34.30;;;0.20;99.90;;;;;;4947442;29;20267;-93
2021/01/09 08:27:52;;;;;;;84.17;33.90;;;0.10;99.90;;;;;;4924464;29;20194;-93
2021/01/09 08:30:24;;;;;;;75.13;33.10;;;1.90;99.90;;;;;;4957760;29;20198;-92
2021/01/09 08:33:11;;;;;;;85.27;36.57;;;0.20;99.90;;;;;;4940021;29;20183;-93
2021/01/09 08:35:46;;;;;;;76.57;33.57;;;0.20;99.90;;;;;;4941889;28;20231;-93
2021/01/09 08:38:12;;;;;;;84.43;34.57;;;0.20;99.90;;;;;;4942629;29;20275;-95
2021/01/09 08:40:44;;;;;;;76.80;31.10;;;0.20;99.90;;;;;;4945356;29;20202;-95
2021/01/09 08:43:13;;;;;;;80.63;34.70;;;0.80;99.90;;;;;;4944106;29;20191;-95
2021/01/09 08:45:54;;;;;;;78.43;32.60;;;0.10;99.90;;;;;;4947012;29;20205;-95
2021/01/09 08:48:28;;;;;;;74.50;35.40;;;1.40;99.90;;;;;;4955406;29;20193;-96
2021/01/09 08:51:12;;;;;;;76.03;33.77;;;0.40;99.90;;;;;;4946619;29;20212;-96
2021/01/09 08:53:56;;;;;;;78.60;34.07;;;-0.60;99.90;;;;;;4953743;29;20663;-95
2021/01/09 08:56:23;;;;;;;76.07;32.60;;;0.40;99.90;;;;;;4968345;28;20231;-95
2021/01/09 08:58:51;;;;;;;73.87;33.23;;;-0.40;99.90;;;;;;4967942;28;20248;-96
2021/01/09 09:01:33;;;;;;;68.53;31.37;;;0.30;99.90;;;;;;4952466;29;20218;-95
2021/01/09 09:04:02;;;;;;;58.30;24.23;;;0.20;99.90;;;;;;4961105;29;20184;-94
2021/01/09 09:06:31;;;;;;;61.23;29.33;;;-2.00;99.90;;;;;;4969553;28;20206;-96
2021/01/09 09:08:58;;;;;;;69.50;30.70;;;1.30;99.90;;;;;;4945623;28;20197;-93
2021/01/09 09:11:25;;;;;;;72.40;31.37;;;2.90;99.90;;;;;;4969166;28;20214;-94
2021/01/09 09:14:03;;;;;;;69.77;31.87;;;2.60;99.90;;;;;;4962064;28;20230;-94
2021/01/09 09:16:33;;;;;;;70.17;33.17;;;0.50;99.90;;;;;;4967467;29;20196;-95
2021/01/09 09:19:15;;;;;;;72.33;31.57;;;0.50;99.90;;;;;;4949676;29;20195;-94
2021/01/09 09:21:43;;;;;;;62.80;27.80;;;0.00;99.90;;;;;;4947610;29;20746;-95
2021/01/09 09:24:10;;;;;;;50.10;23.00;;;3.50;99.90;;;;;;4941258;29;20247;-96
2021/01/09 09:26:36;;;;;;;71.53;32.13;;;2.50;99.90;;;;;;4970249;29;20198;-94
2021/01/09 09:29:02;;;;;;;72.97;30.83;;;0.50;99.90;;;;;;4968882;29;20191;-96
2021/01/09 09:31:35;;;;;;;69.37;29.30;;;-0.20;99.90;;;;;;4950711;29;20250;-93
2021/01/09 09:34:11;;;;;;;73.47;33.77;;;3.20;99.90;;;;;;4975537;28;20183;-91
2021/01/09 09:36:47;;;;;;;65.67;29.33;;;0.40;99.90;;;;;;4974486;28;20242;-94
2021/01/09 09:39:21;;;;;;;66.97;28.53;;;0.60;99.90;;;;;;4993838;23;20282;-96
2021/01/09 09:41:53;;;;;;;68.97;31.07;;;0.90;99.90;;;;;;4934736;29;20206;-93
2021/01/09 09:44:21;;;;;;;69.80;29.60;;;0.50;99.90;;;;;;4949183;29;20192;-94
2021/01/09 09:46:49;;;;;;;60.43;27.97;;;0.30;99.90;;;;;;4946181;29;20202;-94
2021/01/09 09:49:17;;;;;;;68.50;26.97;;;2.40;99.90;;;;;;4951718;28;20182;-94
2021/01/09 09:51:43;;;;;;;62.77;30.90;;;-0.40;99.90;;;;;;4944002;29;20213;-94
2021/01/09 09:54:09;;;;;;;59.50;27.30;;;0.30;99.90;;;;;;4958935;28;20357;-93
2021/01/09 09:56:41;;;;;;;66.30;28.97;;;1.60;99.90;;;;;;4943652;29;20191;-95
2021/01/09 09:59:09;;;;;;;61.60;28.77;;;0.50;99.90;;;;;;4939723;29;20184;-94
2021/01/09 10:01:35;;;;;;;60.37;27.50;;;0.60;99.90;;;;;;4938425;29;20212;-93
2021/01/09 10:04:02;;;;;;;63.70;26.93;;;2.40;99.90;;;;;;4938515;29;20191;-93
2021/01/09 10:06:35;;;;;;;53.77;26.83;;;2.50;99.90;;;;;;4922635;29;20278;-96
2021/01/09 10:09:17;;;;;;;64.73;28.60;;;2.60;99.90;;;;;;4954434;28;20633;-94
2021/01/09 10:11:47;;;;;;;58.13;24.97;;;0.50;99.90;;;;;;4940014;29;20291;-95
2021/01/09 10:14:15;;;;;;;58.00;28.17;;;-0.20;99.90;;;;;;4937387;29;20236;-93
2021/01/09 10:16:43;;;;;;;61.73;25.87;;;0.70;99.90;;;;;;4930818;29;20281;-89
2021/01/09 10:19:13;;;;;;;56.93;26.17;;;1.50;99.90;;;;;;4940655;29;20243;-96
2021/01/09 10:21:39;;;;;;;60.23;26.50;;;0.40;99.90;;;;;;4941194;29;20227;-95
2021/01/09 10:24:05;;;;;;;60.23;26.47;;;0.60;99.90;;;;;;4923372;29;20568;-95
2021/01/09 10:26:33;;;;;;;56.20;25.37;;;0.50;99.90;;;;;;4938547;29;20186;-94
2021/01/09 10:29:03;;;;;;;55.70;25.93;;;1.90;99.90;;;;;;4939803;29;20188;-94
2021/01/09 10:31:38;;;;;;;53.30;23.60;;;1.00;99.90;;;;;;4930044;29;20202;-94
2021/01/09 10:34:08;;;;;;;54.40;24.63;;;3.20;99.90;;;;;;4938695;29;20176;-94
2021/01/09 10:36:35;;;;;;;51.53;24.47;;;2.90;99.90;;;;;;4940906;29;20176;-94
2021/01/09 10:39:06;;;;;;;49.83;22.97;;;1.30;99.90;;;;;;4924939;29;20709;-96
2021/01/09 10:41:32;;;;;;;46.57;23.13;;;0.50;99.90;;;;;;4937243;29;20220;-94
2021/01/09 10:43:58;;;;;;;55.00;24.80;;;0.50;99.90;;;;;;4953300;29;20198;-94
2021/01/09 10:46:28;;;;;;;52.47;23.80;;;0.60;99.90;;;;;;4930619;29;20188;-93
2021/01/09 10:48:54;;;;;;;50.47;22.27;;;0.50;99.90;;;;;;4958552;28;20187;-96
2021/01/09 10:51:21;;;;;;;55.57;23.13;;;1.70;99.90;;;;;;4936483;29;20191;-94
2021/01/09 10:53:48;;;;;;;54.10;24.33;;;1.50;99.90;;;;;;4936211;29;20175;-95
2021/01/09 10:56:14;;;;;;;56.53;23.87;;;0.50;99.90;;;;;;4938954;29;20231;-92
2021/01/09 10:58:40;;;;;;;48.47;24.87;;;1.00;99.90;;;;;;4931319;29;20219;-94
2021/01/09 11:01:06;;;;;;;53.93;23.63;;;0.80;99.90;;;;;;4919899;29;20696;-94
2021/01/09 11:03:33;;;;;;;50.40;20.77;;;1.60;99.90;;;;;;4951783;28;20721;-95
2021/01/09 11:05:59;;;;;;;43.90;20.77;;;-0.70;99.90;;;;;;4923571;29;20215;-93
2021/01/09 11:08:26;;;;;;;45.33;22.77;;;0.70;99.90;;;;;;4950107;28;20242;-92
2021/01/09 11:10:52;;;;;;;49.67;22.57;;;1.00;99.90;;;;;;4935067;29;20649;-93
2021/01/09 11:13:18;;;;;;;50.00;22.60;;;1.70;99.90;;;;;;4951577;28;20254;-93
2021/01/09 11:15:45;;;;;;;50.63;22.83;;;0.70;99.90;;;;;;4919582;29;20219;-94
2021/01/09 11:18:11;;;;;;;45.97;21.17;;;0.70;99.90;;;;;;4935656;29;20195;-94
2021/01/09 11:20:37;;;;;;;46.93;21.13;;;0.70;99.90;;;;;;4935132;29;20254;-93
2021/01/09 11:23:03;;;;;;;45.60;22.07;;;0.70;99.90;;;;;;4937609;29;20200;-95
2021/01/09 11:25:28;;;;;;;48.80;23.20;;;1.90;99.90;;;;;;4949605;29;20193;-94
2021/01/09 11:27:54;;;;;;;49.17;24.60;;;3.10;99.90;;;;;;4920949;29;20188;-93
2021/01/09 11:30:20;;;;;;;51.90;25.73;;;0.80;99.90;;;;;;4903924;29;20257;-95
2021/01/09 11:32:45;;;;;;;43.57;23.97;;;0.90;99.90;;;;;;4940745;29;20194;-94
2021/01/09 11:35:11;;;;;;;40.90;18.97;;;0.90;99.90;;;;;;4936921;29;20187;-94
2021/01/09 11:37:37;;;;;;;44.47;20.60;;;0.80;99.90;;;;;;4935684;29;20659;-93
2021/01/09 11:40:04;;;;;;;41.83;20.73;;;2.00;99.90;;;;;;4936560;29;20290;-95
2021/01/09 11:42:30;;;;;;;35.73;19.17;;;0.70;99.90;;;;;;4936718;29;20208;-93
2021/01/09 11:44:56;;;;;;;42.53;19.43;;;3.30;99.90;;;;;;4934817;29;20184;-94
2021/01/09 11:47:22;;;;;;;41.20;20.83;;;0.70;99.90;;;;;;4962399;28;20544;-96
2021/01/09 11:49:48;;;;;;;38.23;19.10;;;1.70;99.90;;;;;;4937822;29;20184;-94
2021/01/09 11:52:16;;;;;;;35.63;17.83;;;0.90;99.90;;;;;;4935084;29;20210;-94
2021/01/09 11:54:41;;;;;;;46.90;22.33;;;0.80;99.90;;;;;;4934269;29;20230;-94
2021/01/09 11:57:07;;;;;;;40.23;19.63;;;1.10;99.90;;;;;;4904289;29;20231;-92
2021/01/09 11:59:33;;;;;;;47.30;23.60;;;0.90;99.90;;;;;;4933555;29;20191;-93
2021/01/09 12:01:58;;;;;;;43.53;20.17;;;0.70;99.90;;;;;;4919566;29;20768;-91
2021/01/09 12:04:24;;;;;;;42.30;19.83;;;1.80;99.90;;;;;;4919645;29;20203;-95
2021/01/09 12:06:58;;;;;;;39.03;20.30;;;3.10;99.90;;;;;;4940178;29;20267;-95
2021/01/09 12:09:24;;;;;;;37.80;17.50;;;0.80;99.90;;;;;;4918320;29;20213;-93
2021/01/09 12:11:59;;;;;;;33.27;17.97;;;0.90;99.90;;;;;;4936807;29;20649;-95
2021/01/09 12:14:28;;;;;;;38.37;19.00;;;2.50;99.90;;;;;;4937004;29;20606;-94
2021/01/09 12:16:53;;;;;;;38.40;20.47;;;1.00;99.90;;;;;;4921586;29;20217;-93
2021/01/09 12:19:24;;;;;;;41.67;19.73;;;2.40;99.90;;;;;;4917076;29;20203;-94
2021/01/09 12:21:56;;;;;;;41.20;19.17;;;1.10;99.90;;;;;;4936666;29;20218;-92
2021/01/09 12:24:22;;;;;;;41.43;18.80;;;0.60;99.90;;;;;;4936069;29;20196;-95
2021/01/09 12:26:56;;;;;;;38.60;18.90;;;1.00;99.90;;;;;;4933624;29;20239;-92
2021/01/09 12:29:22;;;;;;;45.83;20.63;;;3.10;99.90;;;;;;4935658;29;20199;-95
2021/01/09 12:31:48;;;;;;;35.73;19.07;;;0.80;99.90;;;;;;4938067;29;20195;-89
2021/01/09 12:34:15;;;;;;;44.00;20.43;;;0.90;99.90;;;;;;4937420;29;20231;-95
2021/01/09 12:36:41;;;;;;;43.30;21.97;;;0.90;99.90;;;;;;4934194;29;20188;-95
2021/01/09 12:39:07;;;;;;;43.73;22.90;;;1.30;99.90;;;;;;4934557;29;20342;-95